TTRAIL DE L ESPOIR - 21KM


84 MONIEUX
19/05/2019 09:00:00

# Nom Prenom Temps Sexe Dossard Categ #Sexe #Categ Vit Moy Club
1 VANEL THOMAS 01:23:22 M 943 ESM 1 1 15,11 USALV
2 BARRET CEDRIC 01:23:39 M 980 SEM 2 1 15,06
3 BRUN MAXIME 01:25:12 M 919 SEM 3 2 14,79
4 LEYDIER JEREMY 01:25:41 M 953 SEM 4 3 14,71 UAC
5 MARAIS OLIVIER 01:33:12 M 907 M1M 5 1 13,52 USALV
6 VIDAL BRUNO 01:33:13 M 926 M2M 6 1 13,52 COMBES ET CRETES
7 FERNANDES JOAQUIM 01:33:16 M 954 M2M 7 2 13,51 LES MOLLETS PETILLANTS
8 DONAT SEBASTIEN 01:33:21 M 939 SEM 8 4 13,50
9 CHU-QUANG MINH-CHAU 01:34:15 F 906 M1F 1 1 13,37
10 CHIRON GERARD 01:36:31 M 927 M3M 9 1 13,05 LES MOLLETS PETILLANTS
11 NICOLAI GUILLAUME 01:38:04 M 921 M1M 10 2 12,85 AIX ATHLE ROGNES
12 CARRETERO ERIC 01:38:11 M 941 M2M 11 3 12,83 USALV APT
13 THIERIOT GUILLAUME 01:38:15 M 946 M1M 12 3 12,82 COSSLMA
14 BRUSSET PATRICK 01:38:34 M 961 M2M 13 4 12,78 TEAMOLIVIA
15 HIDOUR ABD-ELILAH 01:38:55 M 902 SEM 14 5 12,74
16 JACQUET JOEL 01:39:39 M 978 M2M 15 5 12,64
17 MARTIN AMANDINE 01:42:29 F 973 SEF 2 1 12,29
18 ACHETTE FREDERIC 01:45:01 M 956 M2M 16 6 12,00 SORGUES ATHLE84
19 GROS ERIC 01:45:05 M 950 M2M 17 7 11,99 MILLE PATTES LE PONTET
20 LAUGIER JACQUES 01:45:22 M 962 M3M 18 2 11,96 1000 PATTES LE PONTET
21 NICOLAI DIDIER 01:45:23 M 923 M3M 19 3 11,96
22 LECH OLIVIER 01:46:15 M 908 M2M 20 8 11,86 U SAULT APT LUBERON VENTOUX
23 N:Anonyme 920 P:Anonyme 920 01:47:34 F 920 M1F 3 2 11,71 LES MOLLETS PETILLANTS
24 LIAUTAUD DAVID 01:47:34 M 940 M1M 21 4 11,71
25 BRUGNETTI ANNIE 01:47:58 F 959 M1F 4 3 11,67 LES MOLLETS PETILLANTS
26 ISNARD HELENE 01:48:19 F 960 M1F 5 4 11,63 USALV
27 ISNARD JEAN-LUC 01:49:01 M 947 M2M 22 9 11,56 LES MOLLETS PETILLANTS
28 GIRARD CHRISTIAN 01:49:43 M 958 M2M 23 10 11,48 ELECTRICITE GIRARD
29 COUDURIER PASCAL 01:50:59 M 913 M1M 24 5 11,35
30 DEWINTER EMMANUELLE 01:51:02 F 971 SEF 6 2 11,35
31 PAGET MICKAEL 01:51:22 M 914 M1M 25 6 11,31
32 MORENO ALLAN 01:51:27 M 915 SEM 26 6 11,31
33 XICLUNA VIRGINIE 01:51:36 F 905 M1F 7 5 11,29 AVIGNON LE PONTET TRIATHLON
34 JAROUSSEAU BENOIT 01:52:29 M 933 SEM 27 7 11,20
35 RODOT CLAUDY 01:52:43 M 912 SEM 28 8 11,18
36 NICOLAS FLORIAN 01:52:43 M 909 SEM 29 9 11,18
37 RUSSO QUENTIN 01:52:45 M 934 SEM 30 10 11,18
38 N:Anonyme 938 P:Anonyme 938 01:52:53 M 938 SEM 31 11 11,16
39 RATINAUD CATHY 01:53:21 F 922 M1F 8 6 11,12
40 LARGAUD FRANCOIS 01:53:23 M 979 M1M 32 7 11,11
41 BONICI JEROME 01:53:33 M 910 M1M 33 8 11,10
42 GROSSET JEAN-FELIX 01:58:33 M 975 M2M 34 11 10,63
43 LAMBERT PHILIP 01:58:33 M 974 M2M 35 12 10,63
44 OSELLA JEAN-LOUP 01:58:42 M 949 SEM 36 12 10,61
45 BOUNET FREDERIC 01:58:55 M 951 SEM 37 13 10,60
46 BASSAC AUDREY 01:58:56 F 901 SEF 9 3 10,59 LONDAIS ATHLETIC MEDITERRANNEEN
47 CALAMEL LAURE 01:59:08 F 932 M1F 10 7 10,58
48 BERGER PASCAL 02:00:54 M 957 M1M 38 9 10,42
49 REVERTEGAT JEAN-LUC 02:00:55 M 942 M2M 39 13 10,42 VIEUX CRAMPONS GADAGNE
50 VEDOVATI SERGE 02:12:02 M 970 M2M 40 14 9,54
51 LACHMAN MICHEL 02:12:06 M 924 M1M 41 10 9,54
52 COTTERLI KARINE 02:18:08 F 917 SEF 11 4 9,12
53 DEFLAUX MARYSE 02:21:04 F 936 M2F 12 1 8,93 MENERBES RUNNING
54 DEFLAUX ALAIN 02:21:04 M 937 M3M 42 4 8,93 MENERBES RUNNING
55 TINAUT DAVID 02:21:16 M 945 M1M 43 11 8,92
56 CORNILLE ROLAND 02:21:39 M 928 M2M 44 15 8,90 USALV
57 BERMEJO-LINGER LAETITIA 02:23:54 F 935 M1F 13 8 8,76
58 TAMBURRINI GERARD 02:25:51 M 955 M2M 45 16 8,64
59 OSELLA CHRISTOPHE 02:26:08 M 948 M2M 46 17 8,62 SC CHATEAURENARD
60 BERNARD MURIEL 02:27:16 F 930 M2F 14 2 8,56 MENERBES RUNNING
61 BERNARD ROLAND 02:27:16 M 931 M2M 47 18 8,56 MENERBES RUNNING
62 CHABOT MELANIE 02:29:19 F 977 SEF 15 5 8,44
63 BOIX LAURENCE 02:29:19 F 976 M2F 16 3 8,44
64 MIALHE JOCELYNE 02:30:22 F 925 M1F 17 9 8,38 COMBES ET CRETES
65 LETEURTRE CHRISTOPHE 02:32:14 M 911 SEM 48 14 8,28
66 AMADOR JOSEPH-DIEGO 02:33:41 M 944 M1M 49 12 8,20 LA FOULEE VEDENAISE
67 PREVOSTO BENJAMIN 02:34:29 M 929 M1M 50 13 8,16 ESPERFINIR